createdAt,value
2019-03-18T00:00:49.471Z,0.00
2019-03-18T00:01:49.483Z,0.00
2019-03-18T00:02:49.460Z,0.00
2019-03-18T00:03:49.457Z,0.00
2019-03-18T00:04:49.424Z,0.00
2019-03-18T00:05:49.414Z,0.00
2019-03-18T00:06:49.396Z,0.00
2019-03-18T00:07:49.414Z,0.00
2019-03-18T00:08:49.398Z,0.00
2019-03-18T00:09:49.365Z,0.00
2019-03-18T00:10:49.354Z,0.00
2019-03-18T00:11:49.342Z,0.00
2019-03-18T00:12:51.972Z,0.00
2019-03-18T00:13:49.346Z,0.00
2019-03-18T00:15:00.420Z,0.00
2019-03-18T00:15:50.299Z,0.00
2019-03-18T00:16:49.288Z,0.00
2019-03-18T00:17:49.282Z,0.00
2019-03-18T00:18:49.283Z,0.00
2019-03-18T00:19:49.270Z,0.00
2019-03-18T00:20:49.238Z,0.00
2019-03-18T00:21:49.232Z,0.00
2019-03-18T00:22:49.236Z,0.00
2019-03-18T00:23:49.227Z,0.00
2019-03-18T00:24:49.196Z,0.00
2019-03-18T00:25:49.190Z,0.00
2019-03-18T00:26:49.207Z,0.00
2019-03-18T00:27:49.170Z,0.00
2019-03-18T00:28:49.176Z,0.00
2019-03-18T00:29:49.153Z,0.00
2019-03-18T00:30:49.183Z,0.00
2019-03-18T00:31:49.129Z,0.00
2019-03-18T00:32:49.112Z,0.00
2019-03-18T00:33:49.115Z,0.00
2019-03-18T00:34:49.089Z,0.00
2019-03-18T00:35:49.106Z,0.00
2019-03-18T00:36:49.066Z,0.00
2019-03-18T00:37:49.071Z,0.00
2019-03-18T00:38:49.081Z,0.00
2019-03-18T00:39:49.037Z,0.00
2019-03-18T00:40:49.023Z,0.00
2019-03-18T00:41:49.008Z,0.00
2019-03-18T00:42:49.030Z,0.00
2019-03-18T00:43:49.009Z,0.00
2019-03-18T00:44:48.979Z,0.00
2019-03-18T00:45:48.987Z,0.00
2019-03-18T00:46:48.972Z,0.00
2019-03-18T00:47:48.945Z,0.00
2019-03-18T00:48:48.958Z,0.00
2019-03-18T00:49:48.933Z,0.00
2019-03-18T00:50:48.917Z,0.00
2019-03-18T00:51:48.902Z,0.00
2019-03-18T00:52:48.928Z,0.00
2019-03-18T00:53:48.915Z,0.00
2019-03-18T00:54:48.864Z,0.00
2019-03-18T00:55:51.615Z,0.00
2019-03-18T00:56:48.863Z,0.00
2019-03-18T00:57:48.861Z,0.00
2019-03-18T00:58:48.842Z,0.00
2019-03-18T00:59:48.995Z,0.00
2019-03-18T01:00:48.887Z,0.00
2019-03-18T01:01:48.792Z,0.00
2019-03-18T01:02:49.621Z,0.00
2019-03-18T01:03:48.783Z,0.00
2019-03-18T01:04:48.775Z,0.00
2019-03-18T01:05:48.753Z,0.00
2019-03-18T01:06:48.733Z,0.00
2019-03-18T01:07:48.731Z,0.00
2019-03-18T01:08:48.731Z,0.00
2019-03-18T01:09:48.720Z,0.00
2019-03-18T01:10:48.714Z,0.00
2019-03-18T01:11:48.673Z,0.00
2019-03-18T01:12:48.679Z,0.00
2019-03-18T01:13:48.664Z,0.00
2019-03-18T01:14:48.671Z,0.00
2019-03-18T01:15:48.665Z,0.00
2019-03-18T01:16:48.703Z,0.00
2019-03-18T01:17:48.622Z,0.00
2019-03-18T01:18:48.604Z,0.00
2019-03-18T01:19:48.615Z,0.00
2019-03-18T01:20:48.615Z,0.00
2019-03-18T01:21:48.574Z,0.00
2019-03-18T01:22:48.570Z,0.00
2019-03-18T01:23:48.571Z,0.00
2019-03-18T01:24:48.564Z,0.00
2019-03-18T01:25:48.528Z,0.00
2019-03-18T01:26:48.529Z,0.00
2019-03-18T01:27:48.536Z,0.00
2019-03-18T01:28:48.494Z,0.00
2019-03-18T01:29:48.510Z,0.00
2019-03-18T01:30:48.482Z,0.00
2019-03-18T01:31:48.466Z,0.00
2019-03-18T01:32:48.449Z,0.00
2019-03-18T01:33:48.451Z,0.00
2019-03-18T01:34:48.451Z,0.00
2019-03-18T01:35:48.418Z,0.00
2019-03-18T01:36:48.416Z,0.00
2019-03-18T01:37:48.401Z,0.00
2019-03-18T01:38:48.380Z,0.00
2019-03-18T01:39:48.395Z,0.00
2019-03-18T01:40:48.361Z,0.00
2019-03-18T01:41:48.369Z,0.00
2019-03-18T01:42:48.378Z,0.00
2019-03-18T01:43:48.330Z,0.00
2019-03-18T01:44:48.351Z,0.00
2019-03-18T01:45:48.338Z,0.00
2019-03-18T01:46:48.294Z,0.00
2019-03-18T01:47:48.292Z,0.00
2019-03-18T01:48:48.277Z,0.00
2019-03-18T01:49:48.280Z,0.00
2019-03-18T01:50:48.258Z,0.00
2019-03-18T01:51:48.245Z,0.00
2019-03-18T01:52:48.236Z,0.00
2019-03-18T01:53:48.230Z,0.00
2019-03-18T01:54:48.242Z,0.00
2019-03-18T01:55:48.197Z,0.00
2019-03-18T01:56:48.194Z,0.00
2019-03-18T01:57:48.178Z,0.00
2019-03-18T01:58:48.168Z,0.00
2019-03-18T01:59:48.462Z,0.00
2019-03-18T02:00:48.148Z,0.00
2019-03-18T02:01:48.128Z,0.00
2019-03-18T02:02:48.154Z,0.00
2019-03-18T02:03:48.111Z,0.00
2019-03-18T02:04:48.115Z,0.00
2019-03-18T02:05:48.086Z,0.00
2019-03-18T02:06:48.072Z,0.00
2019-03-18T02:07:48.067Z,0.00
2019-03-18T02:08:48.074Z,0.00
2019-03-18T02:09:48.109Z,0.00
2019-03-18T02:10:48.042Z,0.00
2019-03-18T02:11:48.020Z,0.00
2019-03-18T02:12:48.016Z,0.00
2019-03-18T02:13:48.013Z,0.00
2019-03-18T02:14:48.008Z,0.00
2019-03-18T02:15:53.286Z,0.00
2019-03-18T02:16:48.975Z,0.00
2019-03-18T02:17:47.970Z,0.00
2019-03-18T02:18:47.940Z,0.00
2019-03-18T02:19:47.987Z,0.00
2019-03-18T02:20:47.923Z,0.00
2019-03-18T02:21:47.915Z,0.00
2019-03-18T02:22:47.919Z,0.00
2019-03-18T02:23:47.892Z,0.00
2019-03-18T02:24:47.885Z,0.00
2019-03-18T02:25:47.894Z,0.00
2019-03-18T02:26:47.860Z,0.00
2019-03-18T02:27:47.843Z,0.00
2019-03-18T02:28:47.843Z,0.00
2019-03-18T02:29:47.834Z,0.00
2019-03-18T02:30:47.858Z,0.00
2019-03-18T02:31:47.798Z,0.00
2019-03-18T02:32:47.924Z,0.00
2019-03-18T02:33:47.790Z,0.00
2019-03-18T02:34:47.779Z,0.00
2019-03-18T02:35:47.781Z,0.00
2019-03-18T02:36:47.762Z,0.00
2019-03-18T02:37:47.745Z,0.00
2019-03-18T02:38:47.719Z,0.00
2019-03-18T02:39:47.738Z,0.00
2019-03-18T02:40:47.730Z,0.00
2019-03-18T02:41:47.695Z,0.00
2019-03-18T02:42:47.695Z,0.00
2019-03-18T02:43:47.670Z,0.00
2019-03-18T02:44:47.687Z,0.00
2019-03-18T02:45:47.680Z,0.00
2019-03-18T02:46:47.635Z,0.00
2019-03-18T02:47:47.636Z,0.00
2019-03-18T02:48:47.619Z,0.00
2019-03-18T02:49:47.597Z,0.00
2019-03-18T02:50:47.619Z,0.00
2019-03-18T02:51:47.577Z,0.00
2019-03-18T02:52:47.597Z,0.00
2019-03-18T02:53:47.567Z,0.00
2019-03-18T02:54:47.542Z,0.00
2019-03-18T02:55:47.561Z,0.00
2019-03-18T02:56:47.628Z,0.00
2019-03-18T02:57:47.510Z,0.00
2019-03-18T02:58:47.504Z,0.00
2019-03-18T02:59:47.505Z,0.00
2019-03-18T03:00:47.497Z,0.00
2019-03-18T03:01:47.471Z,0.00
2019-03-18T03:02:47.494Z,0.00
2019-03-18T03:03:47.453Z,0.00
2019-03-18T03:04:47.441Z,0.00
2019-03-18T03:05:47.484Z,0.00
2019-03-18T03:06:47.421Z,0.00
2019-03-18T03:07:47.399Z,0.00
2019-03-18T03:08:47.402Z,0.00
2019-03-18T03:09:47.377Z,0.00
2019-03-18T03:10:47.382Z,0.00
2019-03-18T03:11:47.359Z,0.00
2019-03-18T03:12:47.339Z,0.00
2019-03-18T03:13:47.337Z,0.00
2019-03-18T03:14:47.323Z,0.00
2019-03-18T03:15:47.336Z,0.00
2019-03-18T03:16:47.330Z,0.00
2019-03-18T03:17:47.287Z,0.00
2019-03-18T03:18:47.293Z,0.00
2019-03-18T03:19:47.270Z,0.00
2019-03-18T03:20:47.279Z,0.00
2019-03-18T03:21:47.288Z,0.00
2019-03-18T03:22:47.273Z,0.00
2019-03-18T03:23:47.223Z,0.00
2019-03-18T03:24:47.219Z,0.00
2019-03-18T03:25:47.216Z,0.00
2019-03-18T03:26:47.198Z,0.00
2019-03-18T03:27:47.215Z,0.00
2019-03-18T03:28:47.171Z,0.00
2019-03-18T03:29:47.160Z,0.00
2019-03-18T03:30:47.214Z,0.00
2019-03-18T03:31:47.137Z,0.00
2019-03-18T03:32:47.130Z,0.00
2019-03-18T03:33:47.140Z,0.00
2019-03-18T03:34:47.105Z,0.00
2019-03-18T03:35:47.131Z,0.00
2019-03-18T03:36:47.099Z,0.00
2019-03-18T03:37:47.098Z,0.00
2019-03-18T03:38:47.068Z,0.00
2019-03-18T03:39:47.051Z,0.00
2019-03-18T03:40:47.072Z,0.00
2019-03-18T03:41:47.024Z,0.00
2019-03-18T03:42:47.024Z,0.00
2019-03-18T03:43:47.014Z,0.00
2019-03-18T03:44:47.013Z,0.00
2019-03-18T03:45:47.007Z,0.00
2019-03-18T03:46:46.973Z,0.00
2019-03-18T03:47:46.999Z,0.00
2019-03-18T03:48:47.042Z,0.00
2019-03-18T03:49:46.949Z,0.00
2019-03-18T03:50:46.959Z,0.00
2019-03-18T03:51:46.994Z,0.00
2019-03-18T03:52:46.906Z,0.00
2019-03-18T03:53:46.895Z,0.00
2019-03-18T03:54:46.880Z,0.00
2019-03-18T03:55:46.918Z,0.00
2019-03-18T03:56:46.897Z,0.00
2019-03-18T03:57:46.851Z,0.00
2019-03-18T03:58:46.834Z,0.00
2019-03-18T03:59:46.831Z,0.00
2019-03-18T04:00:46.851Z,0.00
2019-03-18T04:01:46.810Z,0.00
2019-03-18T04:02:46.796Z,0.00
2019-03-18T04:03:46.812Z,0.00
2019-03-18T04:04:46.770Z,0.00
2019-03-18T04:05:46.771Z,0.00
2019-03-18T04:06:46.778Z,0.00
2019-03-18T04:07:46.744Z,0.00
2019-03-18T04:08:46.733Z,0.00
2019-03-18T04:09:46.714Z,0.00
2019-03-18T04:10:46.705Z,0.00
2019-03-18T04:11:46.723Z,0.00
2019-03-18T04:12:46.711Z,0.00
2019-03-18T04:13:46.677Z,0.00
2019-03-18T04:14:46.707Z,0.00
2019-03-18T04:15:46.655Z,0.00
2019-03-18T04:17:00.732Z,0.00
2019-03-18T04:17:47.656Z,0.00
2019-03-18T04:18:46.634Z,0.00
2019-03-18T04:19:46.605Z,0.00
2019-03-18T04:20:46.622Z,0.00
2019-03-18T04:21:50.333Z,0.00
2019-03-18T04:22:46.583Z,0.00
2019-03-18T04:23:46.567Z,0.00
2019-03-18T04:24:46.581Z,0.00
2019-03-18T04:25:46.546Z,0.00
2019-03-18T04:26:46.549Z,0.00
2019-03-18T04:27:46.515Z,0.00
2019-03-18T04:28:46.530Z,0.00
2019-03-18T04:29:46.496Z,0.00
2019-03-18T04:30:46.485Z,0.00
2019-03-18T04:31:46.491Z,0.00
2019-03-18T04:32:46.489Z,0.00
2019-03-18T04:33:46.457Z,0.00
2019-03-18T04:34:46.441Z,0.00
2019-03-18T04:35:46.435Z,0.00
2019-03-18T04:36:46.466Z,0.00
2019-03-18T04:37:46.404Z,0.00
2019-03-18T04:38:46.387Z,0.00
2019-03-18T04:39:46.650Z,0.00
2019-03-18T04:40:46.376Z,0.00
2019-03-18T04:41:46.376Z,0.00
2019-03-18T04:42:46.347Z,0.00
2019-03-18T04:43:46.332Z,0.00
2019-03-18T04:44:46.330Z,0.00
2019-03-18T04:45:46.313Z,0.00
2019-03-18T04:46:46.317Z,0.00
2019-03-18T04:47:46.323Z,0.00
2019-03-18T04:48:46.280Z,0.00
2019-03-18T04:49:46.270Z,0.00
2019-03-18T04:50:46.265Z,0.00
2019-03-18T04:51:46.266Z,0.00
2019-03-18T04:52:46.252Z,0.00
2019-03-18T04:53:46.231Z,0.00
2019-03-18T04:54:46.226Z,0.00
2019-03-18T04:55:46.207Z,0.00
2019-03-18T04:56:46.240Z,0.00
2019-03-18T04:57:46.187Z,0.00
2019-03-18T04:58:46.187Z,0.00
2019-03-18T04:59:46.157Z,0.00
2019-03-18T05:00:46.152Z,0.00
2019-03-18T05:01:46.156Z,0.00
2019-03-18T05:02:46.126Z,4.00
2019-03-18T05:03:46.124Z,0.00
2019-03-18T05:04:46.121Z,4.00
2019-03-18T05:05:46.095Z,4.00
2019-03-18T05:06:46.142Z,0.00
2019-03-18T05:07:46.087Z,4.00
2019-03-18T05:08:46.064Z,4.00
2019-03-18T05:09:46.060Z,4.00
2019-03-18T05:10:46.036Z,4.00
2019-03-18T05:11:46.057Z,4.00
2019-03-18T05:12:46.018Z,4.00
2019-03-18T05:13:46.130Z,8.00
2019-03-18T05:14:46.007Z,4.00
2019-03-18T05:15:45.989Z,4.00
2019-03-18T05:16:45.974Z,4.00
2019-03-18T05:17:46.014Z,8.00
2019-03-18T05:18:45.949Z,8.00
2019-03-18T05:19:45.935Z,8.00
2019-03-18T05:20:45.937Z,8.00
2019-03-18T05:21:45.916Z,8.00
2019-03-18T05:22:45.921Z,8.00
2019-03-18T05:23:45.894Z,8.00
2019-03-18T05:24:45.885Z,8.00
2019-03-18T05:25:45.876Z,12.00
2019-03-18T05:26:45.905Z,12.00
2019-03-18T05:27:45.881Z,12.00
2019-03-18T05:28:45.843Z,16.00
2019-03-18T05:29:45.832Z,8.00
2019-03-18T05:30:45.815Z,8.00
2019-03-18T05:31:45.810Z,12.00
2019-03-18T05:32:45.821Z,12.00
2019-03-18T05:33:45.796Z,8.00
2019-03-18T05:34:45.788Z,12.00
2019-03-18T05:35:45.779Z,8.00
2019-03-18T05:36:45.753Z,12.00
2019-03-18T05:37:45.759Z,12.00
2019-03-18T05:38:45.753Z,16.00
2019-03-18T05:39:45.725Z,16.00
2019-03-18T05:40:45.717Z,16.00
2019-03-18T05:41:45.719Z,16.00
2019-03-18T05:42:45.708Z,24.00
2019-03-18T05:43:45.677Z,20.00
2019-03-18T05:44:45.666Z,16.00
2019-03-18T05:45:45.682Z,20.00
2019-03-18T05:46:45.645Z,20.00
2019-03-18T05:47:45.649Z,24.00
2019-03-18T05:48:45.618Z,36.00
2019-03-18T05:49:45.613Z,40.00
2019-03-18T05:50:45.597Z,24.00
2019-03-18T05:51:45.584Z,16.00
2019-03-18T05:52:45.605Z,16.00
2019-03-18T05:53:45.591Z,24.00
2019-03-18T05:54:45.557Z,24.00
2019-03-18T05:55:45.544Z,32.00
2019-03-18T05:56:45.571Z,28.00
2019-03-18T05:57:45.543Z,24.00
2019-03-18T05:58:45.502Z,40.00
2019-03-18T05:59:45.495Z,32.00
2019-03-18T06:00:45.494Z,40.00
2019-03-18T06:01:45.473Z,32.00
2019-03-18T06:02:47.095Z,40.00
2019-03-18T06:03:45.457Z,40.00
2019-03-18T06:04:45.455Z,40.00
2019-03-18T06:05:45.433Z,48.00
2019-03-18T06:06:45.433Z,60.00
2019-03-18T06:07:45.451Z,72.00
2019-03-18T06:08:45.409Z,72.00
2019-03-18T06:09:45.403Z,76.00
2019-03-18T06:10:45.419Z,84.00
2019-03-18T06:11:45.376Z,68.00
2019-03-18T06:12:45.387Z,76.00
2019-03-18T06:13:45.349Z,68.00
2019-03-18T06:14:45.343Z,64.00
2019-03-18T06:15:45.325Z,68.00
2019-03-18T06:16:45.307Z,80.00
2019-03-18T06:17:52.302Z,88.00
2019-03-18T06:18:46.289Z,128.00
2019-03-18T06:19:45.278Z,112.00
2019-03-18T06:20:45.278Z,108.00
2019-03-18T06:21:45.278Z,104.00
2019-03-18T06:22:45.282Z,112.00
2019-03-18T06:23:45.241Z,84.00
2019-03-18T06:24:45.223Z,88.00
2019-03-18T06:25:45.253Z,88.00
2019-03-18T06:26:45.204Z,108.00
2019-03-18T06:27:45.216Z,108.00
2019-03-18T06:28:45.392Z,108.00
2019-03-18T06:29:45.195Z,108.00
2019-03-18T06:30:45.159Z,112.00
2019-03-18T06:31:45.160Z,140.00
2019-03-18T06:32:45.177Z,108.00
2019-03-18T06:33:45.132Z,120.00
2019-03-18T06:34:45.172Z,168.00
2019-03-18T06:35:45.117Z,152.00
2019-03-18T06:36:45.132Z,124.00
2019-03-18T06:37:45.190Z,108.00
2019-03-18T06:38:45.070Z,92.00
2019-03-18T06:39:45.059Z,104.00
2019-03-18T06:40:45.061Z,96.00
2019-03-18T06:41:45.051Z,100.00
2019-03-18T06:42:45.070Z,96.00
2019-03-18T06:43:45.010Z,140.00
2019-03-18T06:44:45.003Z,132.00
2019-03-18T06:45:45.014Z,148.00
2019-03-18T06:46:45.036Z,196.00
2019-03-18T06:47:44.972Z,108.00
2019-03-18T06:48:44.976Z,128.00
2019-03-18T06:49:44.948Z,224.00
2019-03-18T06:50:44.962Z,240.00
2019-03-18T06:51:44.937Z,192.00
2019-03-18T06:52:44.926Z,160.00
2019-03-18T06:53:44.937Z,176.00
2019-03-18T06:54:44.892Z,208.00
2019-03-18T06:55:44.884Z,204.00
2019-03-18T06:56:44.895Z,204.00
2019-03-18T06:57:44.877Z,396.00
2019-03-18T06:58:44.914Z,304.00
2019-03-18T06:59:44.848Z,388.00
2019-03-18T07:00:44.848Z,416.00
2019-03-18T07:01:44.866Z,460.00
2019-03-18T07:02:44.826Z,392.00
2019-03-18T07:03:44.842Z,420.00
2019-03-18T07:04:44.907Z,460.00
2019-03-18T07:05:46.229Z,460.00
2019-03-18T07:06:44.796Z,472.00
2019-03-18T07:07:44.869Z,444.00
2019-03-18T07:08:44.846Z,368.00
2019-03-18T07:09:44.726Z,336.00
2019-03-18T07:10:44.720Z,352.00
2019-03-18T07:11:44.721Z,480.00
2019-03-18T07:12:44.740Z,568.00
2019-03-18T07:13:44.731Z,480.00
2019-03-18T07:14:44.690Z,504.00
2019-03-18T07:15:44.761Z,612.00
2019-03-18T07:16:44.672Z,500.00
2019-03-18T07:17:44.664Z,468.00
2019-03-18T07:18:44.669Z,352.00
2019-03-18T07:19:44.621Z,476.00
2019-03-18T07:20:44.684Z,404.00
2019-03-18T07:21:44.668Z,396.00
2019-03-18T07:22:44.609Z,416.00
2019-03-18T07:23:44.605Z,356.00
2019-03-18T07:24:44.616Z,444.00
2019-03-18T07:25:44.565Z,264.00
2019-03-18T07:26:44.571Z,228.00
2019-03-18T07:27:44.561Z,300.00
2019-03-18T07:28:44.563Z,300.00
2019-03-18T07:29:44.512Z,280.00
2019-03-18T07:30:44.495Z,252.00
2019-03-18T07:31:44.499Z,196.00
2019-03-18T07:32:44.534Z,224.00
2019-03-18T07:33:44.489Z,216.00
2019-03-18T07:34:44.476Z,212.00
2019-03-18T07:35:44.451Z,272.00
2019-03-18T07:36:44.478Z,360.00
2019-03-18T07:37:44.442Z,308.00
2019-03-18T07:38:44.415Z,304.00
2019-03-18T07:39:44.453Z,272.00
2019-03-18T07:40:44.393Z,256.00
2019-03-18T07:41:44.381Z,296.00
2019-03-18T07:42:44.421Z,300.00
2019-03-18T07:43:44.371Z,412.00
2019-03-18T07:44:44.377Z,404.00
2019-03-18T07:45:44.339Z,408.00
2019-03-18T07:46:44.316Z,408.00
2019-03-18T07:47:44.309Z,360.00
2019-03-18T07:48:44.308Z,320.00
2019-03-18T07:49:44.336Z,212.00
2019-03-18T07:50:44.313Z,232.00
2019-03-18T07:51:44.264Z,308.00
2019-03-18T07:52:44.255Z,312.00
2019-03-18T07:53:44.249Z,268.00
2019-03-18T07:54:44.259Z,352.00
2019-03-18T07:55:44.227Z,348.00
2019-03-18T07:56:44.223Z,352.00
2019-03-18T07:57:44.201Z,364.00
2019-03-18T07:58:44.189Z,304.00
2019-03-18T07:59:44.458Z,172.00
2019-03-18T08:00:44.304Z,228.00
2019-03-18T08:01:44.153Z,192.00
2019-03-18T08:02:44.169Z,216.00
2019-03-18T08:03:44.204Z,208.00
2019-03-18T08:04:44.445Z,188.00
2019-03-18T08:05:44.156Z,200.00
2019-03-18T08:06:44.129Z,312.00
2019-03-18T08:07:44.089Z,184.00
2019-03-18T08:08:44.096Z,268.00
2019-03-18T08:09:44.420Z,264.00
2019-03-18T08:10:44.058Z,348.00
2019-03-18T08:11:44.067Z,236.00
2019-03-18T08:12:44.030Z,224.00
2019-03-18T08:13:44.023Z,188.00
2019-03-18T08:14:44.029Z,208.00
2019-03-18T08:15:44.005Z,148.00
2019-03-18T08:16:44.013Z,176.00
2019-03-18T08:17:43.996Z,220.00
2019-03-18T08:18:43.965Z,348.00
2019-03-18T08:19:44.071Z,244.00
2019-03-18T08:20:43.951Z,340.00
2019-03-18T08:21:43.949Z,328.00
2019-03-18T08:22:43.925Z,456.00
2019-03-18T08:23:43.940Z,644.00
2019-03-18T08:24:43.953Z,628.00
2019-03-18T08:25:43.959Z,476.00
2019-03-18T08:26:43.894Z,300.00
2019-03-18T08:27:43.875Z,360.00
2019-03-18T08:28:43.867Z,416.00
2019-03-18T08:29:43.853Z,680.00
2019-03-18T08:30:43.857Z,412.00
2019-03-18T08:31:43.830Z,424.00
2019-03-18T08:32:43.833Z,652.00
2019-03-18T08:33:43.808Z,668.00
2019-03-18T08:34:43.815Z,652.00
2019-03-18T08:35:43.810Z,580.00
2019-03-18T08:36:43.771Z,472.00
2019-03-18T08:37:43.762Z,540.00
2019-03-18T08:38:43.756Z,600.00
2019-03-18T08:39:43.750Z,556.00
2019-03-18T08:40:43.742Z,468.00
2019-03-18T08:41:43.711Z,424.00
2019-03-18T08:42:43.700Z,516.00
2019-03-18T08:43:43.709Z,348.00
2019-03-18T08:44:43.697Z,416.00
2019-03-18T08:45:43.697Z,488.00
2019-03-18T08:46:43.654Z,424.00
2019-03-18T08:47:43.670Z,432.00
2019-03-18T08:48:55.135Z,488.00
2019-03-18T08:49:44.678Z,424.00
2019-03-18T08:50:43.638Z,492.00
2019-03-18T08:51:43.614Z,592.00
2019-03-18T08:52:43.593Z,568.00
2019-03-18T08:53:43.582Z,504.00
2019-03-18T08:54:43.578Z,472.00
2019-03-18T08:55:43.578Z,428.00
2019-03-18T08:56:43.551Z,552.00
2019-03-18T08:57:43.554Z,532.00
2019-03-18T08:58:43.534Z,576.00
2019-03-18T08:59:43.518Z,464.00
2019-03-18T09:00:43.518Z,428.00
2019-03-18T09:01:43.492Z,440.00
2019-03-18T09:02:43.484Z,504.00
2019-03-18T09:03:43.471Z,396.00
2019-03-18T09:04:43.461Z,364.00
2019-03-18T09:05:43.461Z,576.00
2019-03-18T09:06:43.438Z,560.00
2019-03-18T09:07:43.435Z,348.00
2019-03-18T09:08:43.428Z,268.00
2019-03-18T09:09:43.412Z,432.00
2019-03-18T09:10:43.453Z,352.00
2019-03-18T09:11:43.383Z,300.00
2019-03-18T09:12:43.389Z,300.00
2019-03-18T09:13:43.368Z,296.00
2019-03-18T09:14:43.363Z,348.00
2019-03-18T09:15:43.379Z,408.00
2019-03-18T09:16:43.334Z,524.00
2019-03-18T09:17:43.321Z,412.00
2019-03-18T09:18:43.310Z,368.00
2019-03-18T09:19:43.316Z,352.00
2019-03-18T09:20:43.317Z,376.00
2019-03-18T09:21:43.272Z,300.00
2019-03-18T09:22:43.262Z,296.00
2019-03-18T09:23:43.251Z,308.00
2019-03-18T09:24:43.237Z,388.00
2019-03-18T09:25:43.244Z,484.00
2019-03-18T09:26:43.226Z,440.00
2019-03-18T09:27:43.251Z,384.00
2019-03-18T09:28:43.256Z,456.00
2019-03-18T09:29:43.182Z,588.00
2019-03-18T09:30:43.227Z,952.00
2019-03-18T09:31:43.160Z,1016.00
2019-03-18T09:32:43.147Z,1516.00
2019-03-18T09:33:43.139Z,2100.00
2019-03-18T09:34:43.122Z,2436.00
2019-03-18T09:35:43.148Z,3084.00
2019-03-18T09:36:43.120Z,1608.00
2019-03-18T09:37:43.093Z,1348.00
2019-03-18T09:38:43.078Z,2548.00
2019-03-18T09:39:43.066Z,3076.00
2019-03-18T09:40:43.078Z,2304.00
2019-03-18T09:41:43.075Z,2564.00
2019-03-18T09:42:43.043Z,1432.00
2019-03-18T09:43:43.021Z,760.00
2019-03-18T09:44:43.069Z,936.00
2019-03-18T09:45:43.036Z,1352.00
2019-03-18T09:46:42.987Z,960.00
2019-03-18T09:47:43.039Z,1280.00
2019-03-18T09:48:42.963Z,620.00
2019-03-18T09:49:42.954Z,504.00
2019-03-18T09:50:42.941Z,400.00
2019-03-18T09:51:42.959Z,432.00
2019-03-18T09:52:42.944Z,300.00
2019-03-18T09:53:42.933Z,372.00
2019-03-18T09:54:42.961Z,392.00
2019-03-18T09:55:42.883Z,340.00
2019-03-18T09:56:42.890Z,416.00
2019-03-18T09:57:42.878Z,328.00
2019-03-18T09:58:42.945Z,268.00
2019-03-18T09:59:42.856Z,204.00
2019-03-18T10:00:42.830Z,180.00
2019-03-18T10:01:44.544Z,268.00
2019-03-18T10:02:42.817Z,436.00
2019-03-18T10:03:42.815Z,392.00
2019-03-18T10:04:42.791Z,444.00
2019-03-18T10:05:43.928Z,344.00
2019-03-18T10:06:42.779Z,372.00
2019-03-18T10:07:42.756Z,452.00
2019-03-18T10:08:42.742Z,300.00
2019-03-18T10:09:42.782Z,256.00
2019-03-18T10:10:42.750Z,328.00
2019-03-18T10:11:42.723Z,456.00
2019-03-18T10:12:42.697Z,472.00
2019-03-18T10:13:42.718Z,684.00
2019-03-18T10:14:42.673Z,436.00
2019-03-18T10:15:42.665Z,456.00
2019-03-18T10:16:42.670Z,300.00
2019-03-18T10:17:42.684Z,408.00
2019-03-18T10:18:42.623Z,316.00
2019-03-18T10:19:42.621Z,820.00
2019-03-18T10:20:42.655Z,1064.00
2019-03-18T10:21:42.640Z,724.00
2019-03-18T10:22:42.579Z,788.00
2019-03-18T10:23:42.671Z,652.00
2019-03-18T10:24:42.555Z,344.00
2019-03-18T10:25:42.551Z,388.00
2019-03-18T10:26:42.559Z,440.00
2019-03-18T10:27:42.521Z,700.00
2019-03-18T10:28:42.512Z,424.00
2019-03-18T10:29:42.513Z,312.00
2019-03-18T10:30:42.495Z,460.00
2019-03-18T10:31:42.508Z,644.00
2019-03-18T10:32:42.465Z,304.00
2019-03-18T10:33:44.862Z,264.00
2019-03-18T10:34:42.460Z,392.00
2019-03-18T10:35:42.434Z,732.00
2019-03-18T10:36:42.448Z,616.00
2019-03-18T10:37:42.414Z,864.00
2019-03-18T10:38:43.306Z,4728.00
2019-03-18T10:39:42.533Z,12048.00
2019-03-18T10:40:42.400Z,81472.00
2019-03-18T10:41:42.382Z,3740.00
2019-03-18T10:42:42.388Z,9276.00
2019-03-18T10:43:42.385Z,2376.00
2019-03-18T10:44:42.331Z,2724.00
2019-03-18T10:45:42.319Z,4372.00
2019-03-18T10:46:42.372Z,17632.00
2019-03-18T10:47:42.314Z,1672.00
2019-03-18T10:48:42.295Z,1064.00
2019-03-18T10:49:46.296Z,724.00
2019-03-18T10:50:42.275Z,740.00
2019-03-18T10:51:42.265Z,804.00
2019-03-18T10:52:42.261Z,1056.00
2019-03-18T10:53:44.534Z,980.00
2019-03-18T10:54:42.258Z,656.00
2019-03-18T10:55:42.206Z,760.00
2019-03-18T10:56:42.242Z,892.00
2019-03-18T10:57:42.203Z,584.00
2019-03-18T10:58:42.180Z,628.00
2019-03-18T10:59:42.166Z,836.00
2019-03-18T11:00:42.210Z,832.00
2019-03-18T11:01:42.170Z,796.00
2019-03-18T11:02:44.800Z,620.00
2019-03-18T11:03:42.125Z,628.00
2019-03-18T11:04:42.105Z,416.00
2019-03-18T11:05:42.107Z,376.00
2019-03-18T11:06:42.111Z,416.00
2019-03-18T11:07:42.074Z,564.00
2019-03-18T11:08:42.072Z,520.00
2019-03-18T11:09:42.064Z,536.00
2019-03-18T11:10:42.045Z,616.00
2019-03-18T11:11:42.058Z,484.00
2019-03-18T11:12:42.019Z,680.00
2019-03-18T11:13:42.016Z,1060.00
2019-03-18T11:14:42.002Z,744.00
2019-03-18T11:15:41.994Z,500.00
2019-03-18T11:16:41.978Z,380.00
2019-03-18T11:17:41.993Z,324.00
2019-03-18T11:18:41.988Z,352.00
2019-03-18T11:19:41.946Z,444.00
2019-03-18T11:20:42.015Z,700.00
2019-03-18T11:21:41.921Z,25760.00
2019-03-18T11:22:41.988Z,76064.00
2019-03-18T11:23:41.903Z,2532.00
2019-03-18T11:24:41.897Z,1020.00
2019-03-18T11:25:41.882Z,276.00
2019-03-18T11:26:41.874Z,332.00
2019-03-18T11:27:41.870Z,700.00
2019-03-18T11:28:41.989Z,2264.00
2019-03-18T11:29:41.828Z,65536.00
2019-03-18T11:30:41.817Z,64544.00
2019-03-18T11:31:41.814Z,67808.00
2019-03-18T11:32:41.841Z,70944.00
2019-03-18T11:33:41.793Z,73888.00
2019-03-18T11:34:41.798Z,71296.00
2019-03-18T11:35:41.766Z,70848.00
2019-03-18T11:36:41.835Z,70976.00
2019-03-18T11:37:41.858Z,71616.00
2019-03-18T11:38:41.732Z,80032.00
2019-03-18T11:39:41.721Z,69760.00
2019-03-18T11:40:41.730Z,73248.00
2019-03-18T11:41:41.698Z,59968.00
2019-03-18T11:42:41.821Z,72384.00
2019-03-18T11:43:41.678Z,29600.00
2019-03-18T11:44:41.679Z,26016.00
2019-03-18T11:45:41.664Z,60128.00
2019-03-18T11:46:41.644Z,21760.00
2019-03-18T11:47:41.637Z,65024.00
2019-03-18T11:48:41.641Z,3972.00
2019-03-18T11:49:41.641Z,29824.00
2019-03-18T11:50:41.661Z,7572.00
2019-03-18T11:51:41.582Z,12972.00
2019-03-18T11:52:41.571Z,11216.00
2019-03-18T11:53:41.580Z,2280.00
2019-03-18T11:54:41.555Z,14504.00
2019-03-18T11:55:41.545Z,3356.00
2019-03-18T11:56:41.536Z,1296.00
2019-03-18T11:57:41.523Z,1000.00
2019-03-18T11:58:41.538Z,1104.00
2019-03-18T11:59:41.496Z,588.00
2019-03-18T12:00:41.486Z,572.00
2019-03-18T12:01:41.477Z,444.00
2019-03-18T12:02:41.473Z,368.00
2019-03-18T12:03:41.484Z,428.00
2019-03-18T12:04:41.440Z,520.00
2019-03-18T12:05:41.438Z,620.00
2019-03-18T12:06:41.440Z,772.00
2019-03-18T12:07:41.426Z,1448.00
2019-03-18T12:08:41.433Z,844.00
2019-03-18T12:09:41.488Z,4520.00
2019-03-18T12:10:41.387Z,3984.00
2019-03-18T12:11:41.353Z,1732.00
2019-03-18T12:12:41.357Z,1640.00
2019-03-18T12:13:41.371Z,928.00
2019-03-18T12:14:41.354Z,2012.00
2019-03-18T12:15:41.333Z,1652.00
2019-03-18T12:16:41.312Z,1340.00
2019-03-18T12:17:41.307Z,884.00
2019-03-18T12:18:41.309Z,11520.00
2019-03-18T12:19:42.488Z,10476.00
2019-03-18T12:20:41.257Z,9720.00
2019-03-18T12:21:41.259Z,9540.00
2019-03-18T12:22:41.239Z,9720.00
2019-03-18T12:23:41.309Z,10056.00
2019-03-18T12:24:41.343Z,10200.00
2019-03-18T12:25:41.216Z,10272.00
2019-03-18T12:26:41.200Z,10280.00
2019-03-18T12:27:41.203Z,10224.00
2019-03-18T12:28:41.216Z,10032.00
2019-03-18T12:29:41.216Z,9356.00
2019-03-18T12:30:41.182Z,7628.00
2019-03-18T12:31:41.134Z,3368.00
2019-03-18T12:32:41.311Z,2224.00
2019-03-18T12:33:41.153Z,1712.00
2019-03-18T12:34:41.114Z,1376.00
2019-03-18T12:35:41.799Z,1188.00
2019-03-18T12:36:41.095Z,864.00
2019-03-18T12:37:41.155Z,552.00
2019-03-18T12:38:41.079Z,336.00
2019-03-18T12:39:41.051Z,244.00
2019-03-18T12:40:41.043Z,244.00
2019-03-18T12:41:41.029Z,264.00
2019-03-18T12:42:41.033Z,196.00
2019-03-18T12:43:41.359Z,136.00
2019-03-18T12:44:40.985Z,104.00
2019-03-18T12:45:40.985Z,108.00
2019-03-18T12:46:40.994Z,104.00